createdAt,value
2022-11-16T00:01:39.928Z,128.03
2022-11-16T00:04:07.563Z,109.93
2022-11-16T00:06:35.159Z,77.80
2022-11-16T00:09:23.159Z,84.90
2022-11-16T00:11:52.168Z,83.03
2022-11-16T00:14:20.686Z,71.60
2022-11-16T00:16:49.611Z,103.80
2022-11-16T00:19:17.205Z,93.73
2022-11-16T00:21:44.760Z,75.00
2022-11-16T00:24:14.737Z,132.23
2022-11-16T00:26:42.700Z,61.13
2022-11-16T00:29:14.934Z,82.10
2022-11-16T00:31:42.487Z,205.67
2022-11-16T00:34:11.426Z,196.93
2022-11-16T00:36:38.985Z,96.37
2022-11-16T00:39:06.675Z,165.43
2022-11-16T00:41:34.224Z,221.43
2022-11-16T00:44:01.757Z,127.87
2022-11-16T00:46:29.307Z,123.23
2022-11-16T00:48:56.924Z,144.57
2022-11-16T00:51:25.887Z,103.83
2022-11-16T00:53:53.430Z,137.83
2022-11-16T00:56:21.126Z,115.00
2022-11-16T00:58:48.688Z,140.43
2022-11-16T01:01:16.343Z,94.30
2022-11-16T01:03:43.924Z,110.97
2022-11-16T01:06:15.445Z,155.70
2022-11-16T01:08:45.633Z,116.13
2022-11-16T01:11:32.944Z,155.70
2022-11-16T01:14:02.990Z,148.43
2022-11-16T01:16:31.050Z,129.13
2022-11-16T01:18:58.980Z,119.70
2022-11-16T01:21:26.666Z,131.30
2022-11-16T01:23:56.974Z,87.13
2022-11-16T01:26:25.138Z,193.90
2022-11-16T01:28:52.988Z,237.40
2022-11-16T01:31:20.839Z,130.93
2022-11-16T01:33:48.410Z,174.90
2022-11-16T01:36:16.165Z,112.53
2022-11-16T01:38:44.119Z,123.70
2022-11-16T01:41:15.147Z,196.53
2022-11-16T01:43:54.713Z,235.37
2022-11-16T01:46:22.790Z,230.70
2022-11-16T01:48:53.100Z,144.17
2022-11-16T01:51:21.415Z,135.30
2022-11-16T01:53:49.050Z,174.80
2022-11-16T01:56:18.082Z,285.90
2022-11-16T01:58:46.459Z,186.27
2022-11-16T02:01:14.074Z,147.67
2022-11-16T02:03:42.264Z,256.00
2022-11-16T02:06:23.156Z,173.80
2022-11-16T02:09:22.597Z,118.50
2022-11-16T02:12:09.578Z,101.70
2022-11-16T02:14:54.471Z,232.70
2022-11-16T02:17:33.084Z,181.10
2022-11-16T02:20:40.325Z,157.80
2022-11-16T02:23:44.487Z,146.37
2022-11-16T02:26:33.393Z,171.60
2022-11-16T02:29:15.143Z,185.37
2022-11-16T02:31:50.323Z,243.10
2022-11-16T02:34:20.694Z,157.67
2022-11-16T02:36:51.335Z,301.07
2022-11-16T02:39:24.078Z,197.97
2022-11-16T02:41:53.885Z,323.50
2022-11-16T02:44:27.728Z,263.87
2022-11-16T02:47:00.260Z,297.73
2022-11-16T02:49:30.535Z,340.73
2022-11-16T02:52:00.264Z,250.20
2022-11-16T02:54:27.875Z,300.77
2022-11-16T02:56:58.474Z,317.10
2022-11-16T02:59:33.356Z,294.30
2022-11-16T03:02:09.463Z,100.00
2022-11-16T03:04:41.756Z,212.70
2022-11-16T03:07:14.808Z,319.77
2022-11-16T03:09:44.886Z,160.63
2022-11-16T03:12:20.287Z,170.10
2022-11-16T03:14:53.658Z,301.33
2022-11-16T03:17:26.285Z,146.37
2022-11-16T03:19:59.024Z,240.80
2022-11-16T03:22:32.206Z,143.60
2022-11-16T03:24:59.921Z,187.23
2022-11-16T03:27:36.149Z,216.80
2022-11-16T03:30:09.211Z,311.70
2022-11-16T03:32:44.499Z,198.60
2022-11-16T03:35:16.463Z,230.73
2022-11-16T03:37:46.770Z,229.80
2022-11-16T03:40:15.365Z,209.80
2022-11-16T03:42:44.480Z,224.07
2022-11-16T03:45:14.430Z,225.23
2022-11-16T03:47:42.485Z,140.20
2022-11-16T03:50:11.251Z,201.23
2022-11-16T03:52:38.909Z,166.67
2022-11-16T03:55:06.853Z,176.67
2022-11-16T03:57:34.401Z,146.60
2022-11-16T04:00:01.938Z,190.20
2022-11-16T04:02:30.788Z,175.47
2022-11-16T04:05:16.185Z,105.77
2022-11-16T04:08:01.726Z,111.47
2022-11-16T04:10:46.793Z,106.70
2022-11-16T04:13:41.665Z,181.60
2022-11-16T04:16:27.194Z,250.13
2022-11-16T04:19:13.972Z,195.90
2022-11-16T04:22:03.478Z,104.87
2022-11-16T04:24:35.798Z,241.77
2022-11-16T04:27:23.197Z,128.13
2022-11-16T04:29:50.943Z,231.70
2022-11-16T04:32:36.449Z,124.60
2022-11-16T04:35:23.198Z,167.60
2022-11-16T04:37:52.372Z,195.10
2022-11-16T04:40:22.385Z,126.00
2022-11-16T04:42:53.511Z,149.10
2022-11-16T04:45:38.806Z,90.87
2022-11-16T04:48:07.584Z,172.77
2022-11-16T04:50:36.830Z,163.57
2022-11-16T04:53:05.009Z,200.60
2022-11-16T04:55:32.612Z,102.93
2022-11-16T04:58:00.706Z,141.13
2022-11-16T05:00:28.413Z,89.20
2022-11-16T05:03:01.028Z,87.20
2022-11-16T05:05:29.333Z,78.93
2022-11-16T05:07:58.250Z,84.00
2022-11-16T05:10:25.774Z,70.13
2022-11-16T05:12:53.275Z,54.40
2022-11-16T05:15:20.852Z,65.67
2022-11-16T05:17:48.429Z,42.20
2022-11-16T05:20:33.678Z,54.57
2022-11-16T05:23:02.612Z,80.00
2022-11-16T05:25:35.276Z,66.00
2022-11-16T05:28:04.116Z,76.97
2022-11-16T05:30:31.667Z,60.23
2022-11-16T05:32:59.403Z,68.33
2022-11-16T05:35:26.943Z,99.67
2022-11-16T05:37:54.469Z,166.27
2022-11-16T05:40:23.320Z,72.60
2022-11-16T05:42:50.839Z,67.63
2022-11-16T05:45:20.992Z,79.30
2022-11-16T05:47:48.860Z,65.90
2022-11-16T05:50:17.047Z,45.80
2022-11-16T05:52:44.556Z,54.13
2022-11-16T05:55:12.061Z,51.00
2022-11-16T05:57:40.908Z,68.23
2022-11-16T06:00:10.074Z,59.03
2022-11-16T06:02:37.644Z,41.53
2022-11-16T06:05:05.526Z,39.90
2022-11-16T06:07:34.196Z,36.10
2022-11-16T06:10:01.789Z,48.90
2022-11-16T06:12:29.295Z,31.80
2022-11-16T06:14:58.146Z,39.03
2022-11-16T06:17:25.651Z,37.63
2022-11-16T06:19:53.157Z,48.23
2022-11-16T06:22:20.649Z,63.17
2022-11-16T06:24:48.162Z,80.90
2022-11-16T06:27:15.935Z,89.17
2022-11-16T06:29:43.445Z,52.63
2022-11-16T06:32:12.300Z,40.60
2022-11-16T06:34:39.832Z,39.53
2022-11-16T06:37:07.342Z,51.57
2022-11-16T06:39:34.887Z,52.20
2022-11-16T06:42:02.379Z,45.53
2022-11-16T06:44:29.910Z,40.97
2022-11-16T06:46:57.434Z,34.77
2022-11-16T06:49:26.328Z,43.57
2022-11-16T06:51:53.831Z,33.23
2022-11-16T06:54:21.366Z,27.97
2022-11-16T06:56:48.885Z,26.80
2022-11-16T06:59:20.505Z,30.92
2022-11-16T07:01:48.072Z,32.93
2022-11-16T07:04:15.887Z,25.67
2022-11-16T07:06:44.722Z,22.67
2022-11-16T07:09:12.341Z,22.30
2022-11-16T07:11:39.825Z,21.50
2022-11-16T07:14:07.328Z,17.47
2022-11-16T07:16:35.675Z,17.07
2022-11-16T07:19:03.379Z,21.37
2022-11-16T07:21:31.195Z,62.37
2022-11-16T07:24:00.049Z,21.60
2022-11-16T07:26:28.811Z,26.63
2022-11-16T07:28:56.335Z,31.83
2022-11-16T07:31:23.825Z,34.77
2022-11-16T07:33:52.412Z,30.07
2022-11-16T07:36:20.415Z,15.97
2022-11-16T07:38:48.203Z,20.03
2022-11-16T07:41:19.282Z,18.80
2022-11-16T07:43:52.585Z,14.90
2022-11-16T07:46:46.173Z,16.80
2022-11-16T07:49:11.554Z,25.43
2022-11-16T07:51:39.225Z,23.33
2022-11-16T07:54:07.164Z,24.33
2022-11-16T07:56:36.002Z,22.67
2022-11-16T07:59:03.530Z,13.77
2022-11-16T08:01:31.147Z,14.80
2022-11-16T08:03:58.678Z,11.93
2022-11-16T08:06:28.211Z,13.57
2022-11-16T08:08:58.720Z,13.80
2022-11-16T08:11:27.102Z,13.50
2022-11-16T08:13:56.723Z,12.67
2022-11-16T08:16:24.395Z,12.17
2022-11-16T08:18:51.872Z,14.47
2022-11-16T08:21:20.218Z,14.87
2022-11-16T08:23:47.854Z,14.70
2022-11-16T08:26:17.372Z,11.07
2022-11-16T08:28:46.883Z,15.97
2022-11-16T08:31:17.793Z,14.63
2022-11-16T08:33:45.782Z,15.73
2022-11-16T08:36:17.303Z,13.77
2022-11-16T08:38:45.362Z,16.10
2022-11-16T08:41:13.251Z,12.57
2022-11-16T08:43:41.207Z,16.93
2022-11-16T08:46:08.802Z,14.87
2022-11-16T08:48:38.207Z,13.53
2022-11-16T08:51:17.477Z,12.87
2022-11-16T08:53:47.911Z,13.70
2022-11-16T08:56:16.194Z,14.73
2022-11-16T08:58:46.703Z,15.70
2022-11-16T09:01:15.754Z,18.13
2022-11-16T09:03:45.233Z,14.87
2022-11-16T09:06:13.285Z,11.63
2022-11-16T09:08:42.587Z,11.60
2022-11-16T09:11:12.454Z,10.60
2022-11-16T09:13:40.416Z,11.10
2022-11-16T09:16:08.535Z,9.33
2022-11-16T09:18:37.050Z,11.17
2022-11-16T09:21:06.154Z,12.20
2022-11-16T09:23:33.702Z,11.20
2022-11-16T09:26:03.348Z,11.17
2022-11-16T09:28:31.014Z,10.10
2022-11-16T09:31:01.890Z,9.77
2022-11-16T09:33:31.342Z,9.00
2022-11-16T09:36:02.478Z,8.17
2022-11-16T09:38:54.287Z,9.77
2022-11-16T09:41:35.023Z,9.87
2022-11-16T09:44:13.242Z,8.00
2022-11-16T09:46:44.507Z,8.27
2022-11-16T09:49:17.864Z,9.97
2022-11-16T09:51:49.223Z,8.87
2022-11-16T09:54:21.584Z,8.57
2022-11-16T09:56:52.739Z,8.37
2022-11-16T09:59:24.647Z,8.63
2022-11-16T10:01:56.826Z,7.43
2022-11-16T10:04:36.786Z,7.10
2022-11-16T10:07:09.038Z,7.23
2022-11-16T10:09:37.995Z,6.07
2022-11-16T10:12:15.989Z,6.77
2022-11-16T10:15:15.527Z,8.30
2022-11-16T10:18:15.349Z,6.30
2022-11-16T10:21:00.426Z,6.40
2022-11-16T10:23:38.614Z,6.60
2022-11-16T10:26:23.923Z,7.40
2022-11-16T10:29:05.994Z,6.77
2022-11-16T10:31:54.086Z,6.87
2022-11-16T10:34:26.535Z,7.03
2022-11-16T10:36:58.795Z,6.93
2022-11-16T10:39:27.548Z,7.40
2022-11-16T10:42:06.063Z,6.80
2022-11-16T10:44:39.260Z,8.17
2022-11-16T10:47:13.194Z,7.17
2022-11-16T10:49:51.122Z,6.27
2022-11-16T10:52:18.687Z,7.17
2022-11-16T10:54:46.210Z,6.30
2022-11-16T10:57:15.118Z,7.17
2022-11-16T10:59:44.963Z,6.90
2022-11-16T11:02:33.507Z,7.40
2022-11-16T11:05:17.568Z,7.27
2022-11-16T11:07:52.983Z,8.67
2022-11-16T11:10:30.019Z,7.20
2022-11-16T11:13:23.577Z,7.23
2022-11-16T11:15:51.406Z,7.13
2022-11-16T11:18:25.826Z,7.93
2022-11-16T11:21:05.924Z,8.20
2022-11-16T11:23:43.474Z,7.67
2022-11-16T11:26:34.729Z,7.47
2022-11-16T11:29:16.734Z,7.10
2022-11-16T11:31:47.151Z,8.03
2022-11-16T11:34:18.747Z,8.13
2022-11-16T11:36:51.055Z,7.33
2022-11-16T11:39:31.294Z,7.17
2022-11-16T11:42:04.942Z,8.83
2022-11-16T11:44:39.514Z,7.57
2022-11-16T11:47:55.567Z,7.97
2022-11-16T11:50:14.470Z,8.67
2022-11-16T11:52:48.168Z,7.93
2022-11-16T11:55:18.610Z,9.60
2022-11-16T11:57:49.932Z,10.57
2022-11-16T12:00:19.390Z,11.20
2022-11-16T12:03:18.365Z,10.13
2022-11-16T12:05:58.820Z,10.57
2022-11-16T12:08:40.776Z,12.17
2022-11-16T12:11:15.912Z,10.97
2022-11-16T12:13:58.036Z,10.87
2022-11-16T12:16:33.580Z,10.03
2022-11-16T12:19:16.286Z,10.83
2022-11-16T12:21:53.004Z,10.57
2022-11-16T12:24:34.745Z,12.23
2022-11-16T12:27:16.392Z,12.03
2022-11-16T12:29:55.231Z,11.90
2022-11-16T12:32:38.399Z,11.97
2022-11-16T12:35:21.085Z,12.53
2022-11-16T12:38:00.630Z,12.68
2022-11-16T12:40:37.683Z,11.40
2022-11-16T12:43:12.233Z,13.18
2022-11-16T12:46:03.972Z,12.40
2022-11-16T12:48:57.321Z,12.93
2022-11-16T12:51:48.807Z,12.48
2022-11-16T12:54:32.326Z,11.13
2022-11-16T12:57:06.559Z,11.50
2022-11-16T12:59:59.603Z,11.55
2022-11-16T13:02:37.664Z,11.32
2022-11-16T13:05:16.318Z,12.07
2022-11-16T13:07:46.747Z,11.98
2022-11-16T13:10:19.555Z,11.93
2022-11-16T13:12:55.873Z,11.90
2022-11-16T13:15:37.093Z,10.95
2022-11-16T13:18:08.167Z,12.55
2022-11-16T13:20:45.930Z,12.35
2022-11-16T13:23:19.257Z,45.33
2022-11-16T13:25:52.091Z,65.05
2022-11-16T13:28:33.192Z,50.72
2022-11-16T13:31:05.875Z,23.20
2022-11-16T13:33:40.643Z,11.55
2022-11-16T13:36:43.593Z,11.48
2022-11-16T13:39:17.045Z,11.50
2022-11-16T13:41:50.147Z,16.60
2022-11-16T13:44:28.667Z,12.45
2022-11-16T13:46:59.651Z,11.13
2022-11-16T13:49:31.896Z,10.68
2022-11-16T13:52:17.183Z,10.57
2022-11-16T13:54:53.075Z,11.77
2022-11-16T13:57:25.222Z,11.02
2022-11-16T14:00:09.054Z,11.20
2022-11-16T14:02:38.586Z,10.98
2022-11-16T14:05:15.855Z,11.85
2022-11-16T14:07:47.218Z,11.55
2022-11-16T14:11:04.740Z,12.38
2022-11-16T14:13:40.157Z,11.90
2022-11-16T14:16:42.703Z,13.18
2022-11-16T14:19:43.776Z,13.38
2022-11-16T14:22:22.454Z,13.50
2022-11-16T14:24:58.847Z,14.20
2022-11-16T14:27:34.327Z,14.60
2022-11-16T14:30:06.595Z,14.27
2022-11-16T14:32:42.574Z,14.80
2022-11-16T14:35:28.568Z,14.73
2022-11-16T14:38:01.229Z,14.75
2022-11-16T14:40:31.568Z,12.45
2022-11-16T14:43:19.974Z,11.20
2022-11-16T14:45:50.031Z,11.40
2022-11-16T14:48:19.742Z,11.15
2022-11-16T14:51:01.263Z,10.88
2022-11-16T14:53:30.350Z,11.23
2022-11-16T14:56:09.853Z,11.57
2022-11-16T14:58:37.937Z,13.30
2022-11-16T15:01:08.782Z,14.02
2022-11-16T15:03:42.221Z,14.23
2022-11-16T15:06:10.244Z,13.57
2022-11-16T15:08:44.150Z,14.13
2022-11-16T15:11:23.864Z,15.00
2022-11-16T15:13:51.818Z,13.15
2022-11-16T15:16:21.170Z,14.20
2022-11-16T15:18:59.625Z,15.93
2022-11-16T15:21:27.819Z,15.70
2022-11-16T15:24:23.425Z,14.33
2022-11-16T15:26:45.111Z,26.80
2022-11-16T15:29:17.486Z,18.13
2022-11-16T15:31:45.488Z,14.33
2022-11-16T15:34:13.973Z,15.52
2022-11-16T15:36:42.171Z,15.38
2022-11-16T15:39:14.200Z,15.57
2022-11-16T15:41:42.508Z,20.17
2022-11-16T15:44:16.574Z,15.33
2022-11-16T15:46:47.922Z,17.50
2022-11-16T15:49:26.744Z,15.47
2022-11-16T15:51:54.275Z,17.07
2022-11-16T15:54:26.670Z,16.63
2022-11-16T15:56:56.585Z,18.10
2022-11-16T15:59:28.695Z,17.33
2022-11-16T16:01:57.092Z,19.87
2022-11-16T16:04:26.471Z,22.30
2022-11-16T16:06:55.820Z,21.93
2022-11-16T16:09:29.871Z,20.40
2022-11-16T16:12:13.153Z,18.70
2022-11-16T16:14:42.067Z,34.97
2022-11-16T16:17:11.503Z,36.17
2022-11-16T16:19:42.113Z,53.37
2022-11-16T16:22:15.712Z,31.77
2022-11-16T16:24:46.250Z,26.43
2022-11-16T16:27:18.631Z,33.63
2022-11-16T16:29:48.283Z,33.20
2022-11-16T16:32:23.739Z,63.33
2022-11-16T16:34:51.658Z,32.53
2022-11-16T16:37:19.230Z,39.87
2022-11-16T16:39:46.794Z,51.97
2022-11-16T16:42:16.476Z,36.93
2022-11-16T16:44:45.349Z,21.77
2022-11-16T16:47:14.789Z,24.27
2022-11-16T16:49:42.509Z,24.83
2022-11-16T16:52:12.949Z,26.10
2022-11-16T16:54:40.799Z,21.50
2022-11-16T16:57:14.161Z,25.90
2022-11-16T16:59:41.755Z,24.60
2022-11-16T17:02:10.947Z,26.43
2022-11-16T17:04:39.830Z,23.97
2022-11-16T17:07:07.464Z,24.07
2022-11-16T17:09:35.029Z,27.10
2022-11-16T17:12:02.762Z,29.73
2022-11-16T17:14:30.330Z,32.63
2022-11-16T17:16:57.927Z,28.53
2022-11-16T17:19:25.451Z,26.23
2022-11-16T17:21:54.317Z,27.03
2022-11-16T17:24:21.837Z,26.20
2022-11-16T17:26:49.448Z,27.00
2022-11-16T17:29:17.128Z,23.03
2022-11-16T17:31:44.854Z,24.13
2022-11-16T17:34:14.286Z,27.60
2022-11-16T17:36:42.055Z,28.70
2022-11-16T17:39:10.920Z,29.37
2022-11-16T17:41:38.762Z,27.13
2022-11-16T17:44:07.182Z,31.47
2022-11-16T17:46:34.704Z,26.73
2022-11-16T17:49:02.353Z,28.70
2022-11-16T17:51:30.517Z,31.00
2022-11-16T17:53:58.053Z,36.53
2022-11-16T17:56:28.203Z,40.83
2022-11-16T17:58:58.172Z,41.57
2022-11-16T18:01:27.073Z,28.87
2022-11-16T18:03:54.758Z,33.73
2022-11-16T18:06:23.875Z,41.30
2022-11-16T18:08:52.247Z,46.43
2022-11-16T18:11:21.067Z,73.50
2022-11-16T18:13:53.488Z,72.07
2022-11-16T18:16:24.100Z,65.27
2022-11-16T18:18:57.765Z,81.97
2022-11-16T18:21:25.963Z,95.97
2022-11-16T18:23:53.540Z,93.57
2022-11-16T18:26:23.340Z,82.63
2022-11-16T18:28:53.673Z,91.00
2022-11-16T18:31:22.995Z,69.97
2022-11-16T18:33:50.721Z,94.23
2022-11-16T18:36:19.454Z,61.13
2022-11-16T18:38:47.371Z,87.57
2022-11-16T18:41:19.560Z,56.93
2022-11-16T18:43:52.646Z,45.80
2022-11-16T18:46:21.043Z,47.67
2022-11-16T18:48:48.718Z,68.07
2022-11-16T18:51:17.153Z,77.53
2022-11-16T18:53:45.358Z,52.87
2022-11-16T18:56:13.240Z,69.07
2022-11-16T18:58:50.896Z,59.70
2022-11-16T19:01:22.453Z,70.73
2022-11-16T19:03:50.188Z,101.63
2022-11-16T19:06:18.399Z,120.67
2022-11-16T19:08:50.449Z,111.60
2022-11-16T19:11:23.943Z,106.37
2022-11-16T19:13:54.286Z,133.30
2022-11-16T19:16:24.991Z,146.73
2022-11-16T19:18:53.232Z,241.90
2022-11-16T19:21:21.783Z,144.27
2022-11-16T19:23:51.235Z,224.00
2022-11-16T19:26:20.544Z,194.10
2022-11-16T19:28:49.405Z,212.90
2022-11-16T19:31:19.115Z,103.70
2022-11-16T19:33:48.013Z,36.90
2022-11-16T19:36:17.127Z,162.97
2022-11-16T19:38:45.775Z,154.17
2022-11-16T19:41:14.669Z,191.00
2022-11-16T19:43:42.330Z,286.77
2022-11-16T19:46:11.824Z,186.90
2022-11-16T19:48:39.780Z,239.97
2022-11-16T19:51:10.826Z,255.90
2022-11-16T19:53:39.489Z,267.87
2022-11-16T19:56:09.480Z,118.37
2022-11-16T19:58:38.384Z,52.27
2022-11-16T20:01:07.928Z,53.53
2022-11-16T20:03:38.271Z,92.53
2022-11-16T20:06:10.017Z,118.23
2022-11-16T20:08:37.953Z,71.50
2022-11-16T20:11:12.382Z,39.63
2022-11-16T20:13:40.048Z,47.50
2022-11-16T20:16:09.531Z,83.10
2022-11-16T20:18:37.214Z,95.87
2022-11-16T20:21:06.332Z,154.00
2022-11-16T20:23:35.926Z,150.50
2022-11-16T20:26:07.947Z,64.33
2022-11-16T20:28:36.818Z,48.57
2022-11-16T20:31:05.333Z,45.60
2022-11-16T20:33:34.739Z,50.00
2022-11-16T20:36:03.363Z,134.53
2022-11-16T20:38:32.926Z,161.60
2022-11-16T20:41:09.885Z,133.40
2022-11-16T20:43:39.199Z,123.70
2022-11-16T20:46:07.366Z,198.37
2022-11-16T20:48:34.945Z,129.00
2022-11-16T20:51:03.003Z,103.23
2022-11-16T20:53:30.689Z,154.90
2022-11-16T20:55:58.407Z,86.20
2022-11-16T20:58:27.299Z,83.27
2022-11-16T21:00:54.940Z,75.67
2022-11-16T21:03:22.616Z,141.03
2022-11-16T21:05:52.624Z,116.93
2022-11-16T21:08:20.450Z,148.30
2022-11-16T21:10:48.628Z,185.40
2022-11-16T21:13:35.424Z,128.80
2022-11-16T21:16:06.639Z,221.00
2022-11-16T21:18:34.607Z,183.00
2022-11-16T21:21:02.925Z,176.93
2022-11-16T21:23:32.475Z,200.27
2022-11-16T21:26:03.180Z,255.43
2022-11-16T21:28:30.824Z,222.37
2022-11-16T21:30:59.953Z,202.13
2022-11-16T21:33:29.585Z,180.30
2022-11-16T21:35:57.240Z,240.00
2022-11-16T21:38:26.366Z,190.47
2022-11-16T21:40:53.949Z,171.47
2022-11-16T21:43:21.492Z,207.13
2022-11-16T21:45:49.418Z,200.03
2022-11-16T21:48:16.959Z,220.93
2022-11-16T21:50:45.835Z,246.83
2022-11-16T21:53:13.381Z,216.40
2022-11-16T21:55:40.914Z,228.10
2022-11-16T21:58:08.507Z,283.40
2022-11-16T22:00:36.043Z,272.03
2022-11-16T22:03:03.549Z,210.43
2022-11-16T22:05:48.610Z,203.67
2022-11-16T22:08:17.476Z,226.60
2022-11-16T22:10:50.455Z,162.40
2022-11-16T22:13:18.003Z,136.93
2022-11-16T22:15:45.540Z,199.17
2022-11-16T22:18:13.309Z,211.87
2022-11-16T22:20:41.172Z,190.90
2022-11-16T22:23:08.778Z,153.30
2022-11-16T22:25:38.842Z,167.17
2022-11-16T22:28:20.246Z,175.73
2022-11-16T22:30:51.746Z,195.47
2022-11-16T22:33:19.965Z,101.57
2022-11-16T22:35:47.793Z,232.20
2022-11-16T22:38:15.320Z,252.37
2022-11-16T22:40:49.567Z,198.47
2022-11-16T22:43:17.095Z,187.30
2022-11-16T22:45:44.639Z,99.07
2022-11-16T22:48:12.154Z,181.37
2022-11-16T22:50:39.734Z,207.40
2022-11-16T22:53:07.284Z,168.80
2022-11-16T22:55:35.773Z,159.33
2022-11-16T22:58:05.445Z,104.43
2022-11-16T23:00:38.932Z,142.90
2022-11-16T23:03:08.354Z,198.43
2022-11-16T23:05:35.916Z,173.87
2022-11-16T23:08:03.867Z,242.77
2022-11-16T23:10:51.391Z,155.97
2022-11-16T23:13:37.763Z,192.30
2022-11-16T23:16:05.752Z,154.23
2022-11-16T23:18:33.241Z,169.50
2022-11-16T23:21:18.565Z,218.77
2022-11-16T23:24:03.853Z,180.77
2022-11-16T23:26:48.997Z,250.17
2022-11-16T23:29:17.857Z,134.97
2022-11-16T23:31:45.385Z,165.30
2022-11-16T23:34:12.878Z,182.67
2022-11-16T23:36:40.395Z,144.60
2022-11-16T23:39:08.354Z,177.73
2022-11-16T23:41:53.386Z,151.73
2022-11-16T23:44:22.489Z,179.90
2022-11-16T23:46:50.011Z,169.97
2022-11-16T23:49:17.538Z,140.97
2022-11-16T23:51:45.055Z,208.67
2022-11-16T23:54:12.584Z,198.73
2022-11-16T23:56:40.070Z,218.73
2022-11-16T23:59:07.708Z,268.17
